createdAt,value
2024-02-05T00:02:49.732Z,58.99
2024-02-05T00:05:52.661Z,59.04
2024-02-05T00:08:55.848Z,59.04
2024-02-05T00:11:58.714Z,58.97
2024-02-05T00:15:02.733Z,59.17
2024-02-05T00:18:06.404Z,59.16
2024-02-05T00:21:08.741Z,59.14
2024-02-05T00:24:11.410Z,59.16
2024-02-05T00:27:13.798Z,59.19
2024-02-05T00:30:16.560Z,59.13
2024-02-05T00:33:18.957Z,59.13
2024-02-05T00:36:21.963Z,59.16
2024-02-05T00:39:25.603Z,59.11
2024-02-05T00:42:28.432Z,59.19
2024-02-05T00:45:30.703Z,59.04
2024-02-05T00:48:33.912Z,59.10
2024-02-05T00:51:36.280Z,59.14
2024-02-05T00:54:39.481Z,59.05
2024-02-05T00:57:41.693Z,59.05
2024-02-05T01:00:44.702Z,59.05
2024-02-05T01:03:47.119Z,59.06
2024-02-05T01:06:50.405Z,59.10
2024-02-05T01:09:52.611Z,59.10
2024-02-05T01:12:55.546Z,59.09
2024-02-05T01:15:57.714Z,59.10
2024-02-05T01:19:00.879Z,59.19
2024-02-05T01:22:03.588Z,59.08
2024-02-05T01:25:06.436Z,59.13
2024-02-05T01:28:08.826Z,59.08
2024-02-05T01:31:12.051Z,59.11
2024-02-05T01:34:15.001Z,59.15
2024-02-05T01:37:17.938Z,59.18
2024-02-05T01:40:20.697Z,59.15
2024-02-05T01:43:24.223Z,59.18
2024-02-05T01:46:29.784Z,59.50
2024-02-05T01:49:32.635Z,59.34
2024-02-05T01:52:39.144Z,59.27
2024-02-05T01:55:41.862Z,59.17
2024-02-05T01:58:43.991Z,59.26
2024-02-05T02:01:46.989Z,59.21
2024-02-05T02:04:49.723Z,59.12
2024-02-05T02:07:52.774Z,59.13
2024-02-05T02:10:55.252Z,59.27
2024-02-05T02:13:57.953Z,59.26
2024-02-05T02:17:00.667Z,59.30
2024-02-05T02:20:04.918Z,59.23
2024-02-05T02:23:26.498Z,59.23
2024-02-05T02:26:29.363Z,59.24
2024-02-05T02:29:31.629Z,59.12
2024-02-05T02:32:39.808Z,59.24
2024-02-05T02:36:12.181Z,59.15
2024-02-05T02:39:32.825Z,59.16
2024-02-05T02:42:38.793Z,59.12
2024-02-05T02:45:45.904Z,59.10
2024-02-05T02:48:48.469Z,59.16
2024-02-05T02:51:51.733Z,59.16
2024-02-05T02:54:54.307Z,59.17
2024-02-05T02:57:57.300Z,59.31
2024-02-05T03:01:00.724Z,59.33
2024-02-05T03:04:04.174Z,59.27
2024-02-05T03:07:06.516Z,59.26
2024-02-05T03:10:11.543Z,59.34
2024-02-05T03:13:17.698Z,59.25
2024-02-05T03:16:21.649Z,59.35
2024-02-05T03:19:24.307Z,59.34
2024-02-05T03:22:27.138Z,59.35
2024-02-05T03:25:29.538Z,59.29
2024-02-05T03:28:32.461Z,59.37
2024-02-05T03:31:34.839Z,59.34
2024-02-05T03:34:37.756Z,59.32
2024-02-05T03:37:40.681Z,59.38
2024-02-05T03:40:43.183Z,59.40
2024-02-05T03:43:46.374Z,59.49
2024-02-05T03:46:49.475Z,59.42
2024-02-05T03:49:51.669Z,59.46
2024-02-05T03:52:54.435Z,59.58
2024-02-05T03:55:56.718Z,59.39
2024-02-05T03:58:59.319Z,59.40
2024-02-05T04:02:04.387Z,59.31
2024-02-05T04:05:10.594Z,59.37
2024-02-05T04:08:13.174Z,59.42
2024-02-05T04:11:15.652Z,59.31
2024-02-05T04:14:19.055Z,59.46
2024-02-05T04:17:22.018Z,59.42
2024-02-05T04:20:24.517Z,59.30
2024-02-05T04:23:28.012Z,59.32
2024-02-05T04:26:30.347Z,59.41
2024-02-05T04:29:33.079Z,59.49
2024-02-05T04:32:35.620Z,59.42
2024-02-05T04:35:38.494Z,59.54
2024-02-05T04:38:44.782Z,59.43
2024-02-05T04:41:48.700Z,59.35
2024-02-05T04:44:52.255Z,59.42
2024-02-05T04:47:54.943Z,59.46
2024-02-05T04:50:57.185Z,59.35
2024-02-05T04:53:59.734Z,59.41
2024-02-05T04:57:01.793Z,59.49
2024-02-05T05:00:06.117Z,59.33
2024-02-05T05:03:08.442Z,59.33
2024-02-05T05:06:12.221Z,59.36
2024-02-05T05:09:14.706Z,59.23
2024-02-05T05:12:19.982Z,59.30
2024-02-05T05:15:22.592Z,59.25
2024-02-05T05:18:25.248Z,59.19
2024-02-05T05:21:28.569Z,59.33
2024-02-05T05:24:32.329Z,59.19
2024-02-05T05:27:34.446Z,59.11
2024-02-05T05:30:37.168Z,59.22
2024-02-05T05:33:39.607Z,59.29
2024-02-05T05:36:43.164Z,59.21
2024-02-05T05:39:45.978Z,59.68
2024-02-05T05:42:48.828Z,59.43
2024-02-05T05:45:50.900Z,59.60
2024-02-05T05:48:53.811Z,59.68
2024-02-05T05:51:57.616Z,59.72
2024-02-05T05:55:00.528Z,59.56
2024-02-05T05:58:02.962Z,59.47
2024-02-05T06:01:07.611Z,59.67
2024-02-05T06:04:10.115Z,59.53
2024-02-05T06:07:14.172Z,59.58
2024-02-05T06:10:16.809Z,59.53
2024-02-05T06:13:19.885Z,59.57
2024-02-05T06:16:22.341Z,59.48
2024-02-05T06:19:25.701Z,59.66
2024-02-05T06:22:29.824Z,59.48
2024-02-05T06:25:33.589Z,59.33
2024-02-05T06:28:36.642Z,59.48
2024-02-05T06:31:39.328Z,59.35
2024-02-05T06:34:42.053Z,59.56
2024-02-05T06:37:44.676Z,59.23
2024-02-05T06:40:48.012Z,59.45
2024-02-05T06:43:52.252Z,59.43
2024-02-05T06:46:55.107Z,59.32
2024-02-05T06:49:57.855Z,59.33
2024-02-05T06:53:01.354Z,59.30
2024-02-05T06:56:04.518Z,59.30
2024-02-05T06:59:07.136Z,59.22
2024-02-05T07:02:17.354Z,59.18
2024-02-05T07:05:23.456Z,59.27
2024-02-05T07:08:26.348Z,59.22
2024-02-05T07:11:28.672Z,59.18
2024-02-05T07:14:37.778Z,59.05
2024-02-05T07:17:40.631Z,59.12
2024-02-05T07:20:44.144Z,59.07
2024-02-05T07:23:46.701Z,59.09
2024-02-05T07:26:49.288Z,58.97
2024-02-05T07:29:52.501Z,58.97
2024-02-05T07:32:55.421Z,58.95
2024-02-05T07:36:00.416Z,58.91
2024-02-05T07:39:08.206Z,58.90
2024-02-05T07:42:11.680Z,58.89
2024-02-05T07:45:14.796Z,58.95
2024-02-05T07:48:17.014Z,58.82
2024-02-05T07:51:20.218Z,58.75
2024-02-05T07:54:26.219Z,58.77
2024-02-05T07:57:29.598Z,58.77
2024-02-05T08:00:34.432Z,58.67
2024-02-05T08:03:38.194Z,58.76
2024-02-05T08:06:41.079Z,58.68
2024-02-05T08:09:44.172Z,58.78
2024-02-05T08:12:46.764Z,59.23
2024-02-05T08:15:49.449Z,58.90
2024-02-05T08:18:52.731Z,58.93
2024-02-05T08:21:55.483Z,58.92
2024-02-05T08:24:58.340Z,58.91
2024-02-05T08:28:02.235Z,58.94
2024-02-05T08:31:05.005Z,59.06
2024-02-05T08:34:08.704Z,58.95
2024-02-05T08:37:11.165Z,59.14
2024-02-05T08:40:14.771Z,58.94
2024-02-05T08:43:17.457Z,59.10
2024-02-05T08:46:20.511Z,58.99
2024-02-05T08:49:22.860Z,58.96
2024-02-05T08:52:28.677Z,58.85
2024-02-05T08:55:32.575Z,58.72
2024-02-05T08:58:35.735Z,58.69
2024-02-05T09:01:38.192Z,58.73
2024-02-05T09:04:40.955Z,58.86
2024-02-05T09:07:43.196Z,58.85
2024-02-05T09:10:46.370Z,58.62
2024-02-05T09:13:48.741Z,58.86
2024-02-05T09:16:53.229Z,58.75
2024-02-05T09:19:56.967Z,58.57
2024-02-05T09:23:00.070Z,58.86
2024-02-05T09:26:02.418Z,58.69
2024-02-05T09:29:05.185Z,58.40
2024-02-05T09:32:08.212Z,58.43
2024-02-05T09:35:11.379Z,58.00
2024-02-05T09:38:14.052Z,58.70
2024-02-05T09:41:21.759Z,58.90
2024-02-05T09:44:28.249Z,58.58
2024-02-05T09:47:31.664Z,59.64
2024-02-05T09:50:37.791Z,59.49
2024-02-05T09:53:44.489Z,60.09
2024-02-05T09:56:47.622Z,59.99
2024-02-05T09:59:50.348Z,59.17
2024-02-05T10:02:53.341Z,58.57
2024-02-05T10:05:59.045Z,58.70
2024-02-05T10:09:06.276Z,58.29
2024-02-05T10:12:13.913Z,57.25
2024-02-05T10:15:16.453Z,57.53
2024-02-05T10:18:20.909Z,57.50
2024-02-05T10:21:24.057Z,57.07
2024-02-05T10:24:26.944Z,56.65
2024-02-05T10:27:29.890Z,56.59
2024-02-05T10:30:32.638Z,56.66
2024-02-05T10:33:36.126Z,56.48
2024-02-05T10:36:38.826Z,56.01
2024-02-05T10:39:41.619Z,55.62
2024-02-05T10:42:44.812Z,55.69
2024-02-05T10:45:47.337Z,55.69
2024-02-05T10:48:50.061Z,55.52
2024-02-05T10:51:56.419Z,55.60
2024-02-05T10:55:00.521Z,55.37
2024-02-05T10:58:05.928Z,55.34
2024-02-05T11:01:08.938Z,55.14
2024-02-05T11:04:12.520Z,55.22
2024-02-05T11:07:19.203Z,55.15
2024-02-05T11:10:26.935Z,55.13
2024-02-05T11:13:38.911Z,55.02
2024-02-05T11:16:43.601Z,55.04
2024-02-05T11:19:50.646Z,54.70
2024-02-05T11:22:57.142Z,55.17
2024-02-05T11:26:01.205Z,55.12
2024-02-05T11:29:03.794Z,53.78
2024-02-05T11:32:07.418Z,54.74
2024-02-05T11:35:14.935Z,54.52
2024-02-05T11:38:22.094Z,54.51
2024-02-05T11:41:24.569Z,54.49
2024-02-05T11:44:27.862Z,54.35
2024-02-05T11:47:30.285Z,54.39
2024-02-05T11:50:34.334Z,54.34
2024-02-05T11:53:45.862Z,54.18
2024-02-05T11:56:48.473Z,54.16
2024-02-05T11:59:51.166Z,54.20
2024-02-05T12:02:55.054Z,54.05
2024-02-05T12:05:59.212Z,54.09
2024-02-05T12:09:02.942Z,54.49
2024-02-05T12:12:05.794Z,54.02
2024-02-05T12:15:19.923Z,54.38
2024-02-05T12:18:22.648Z,54.48
2024-02-05T12:21:26.527Z,54.58
2024-02-05T12:24:31.088Z,54.54
2024-02-05T12:27:33.922Z,55.08
2024-02-05T12:30:36.045Z,54.27
2024-02-05T12:33:39.305Z,54.74
2024-02-05T12:36:43.112Z,54.70
2024-02-05T12:39:53.006Z,53.93
2024-02-05T12:43:02.402Z,54.11
2024-02-05T12:46:06.832Z,53.98
2024-02-05T12:49:10.006Z,54.38
2024-02-05T12:52:15.437Z,54.55
2024-02-05T12:55:17.960Z,53.95
2024-02-05T12:58:23.822Z,53.77
2024-02-05T13:01:26.361Z,54.37
2024-02-05T13:04:29.771Z,54.23
2024-02-05T13:07:33.665Z,54.46
2024-02-05T13:10:45.464Z,54.18
2024-02-05T13:13:48.450Z,54.28
2024-02-05T13:16:52.915Z,54.09
2024-02-05T13:19:55.479Z,53.94
2024-02-05T13:22:58.248Z,53.59
2024-02-05T17:26:36.623Z,57.06
2024-02-05T17:29:40.003Z,56.97
2024-02-05T17:32:42.902Z,56.64
2024-02-05T17:35:46.520Z,56.48
2024-02-05T17:38:49.155Z,56.45
2024-02-05T17:41:52.791Z,56.88
2024-02-05T17:44:55.110Z,56.54
2024-02-05T17:47:57.860Z,56.28
2024-02-05T17:51:00.664Z,56.57
2024-02-05T17:54:12.591Z,56.44
2024-02-05T17:57:19.037Z,56.42
2024-02-05T18:00:23.300Z,56.47
2024-02-05T18:03:27.800Z,56.49
2024-02-05T18:06:35.340Z,56.67
2024-02-05T18:09:42.178Z,56.72
2024-02-05T18:12:56.777Z,56.65
2024-02-05T18:23:13.413Z,57.18
2024-02-05T18:26:23.118Z,57.14
2024-02-05T18:29:38.572Z,57.22
2024-02-05T18:33:05.035Z,57.42
2024-02-05T18:36:16.506Z,57.53
2024-02-05T18:39:33.717Z,57.27
2024-02-05T18:42:40.757Z,57.49
2024-02-05T18:46:24.592Z,57.68
2024-02-05T18:49:54.029Z,57.82
2024-02-05T18:53:13.461Z,58.10
2024-02-05T18:56:22.626Z,57.79
2024-02-05T19:03:14.169Z,57.89
2024-02-05T19:06:40.619Z,58.05
2024-02-05T19:09:43.564Z,58.12
2024-02-05T19:13:13.663Z,58.71
2024-02-05T19:16:16.798Z,58.16
2024-02-05T19:19:39.484Z,58.40
2024-02-05T19:23:00.554Z,57.82
2024-02-05T19:26:07.380Z,57.54
2024-02-05T19:29:21.197Z,57.72
2024-02-05T19:32:26.230Z,57.78
2024-02-05T19:35:34.950Z,57.71
2024-02-05T19:39:09.126Z,57.33
2024-02-05T19:42:36.139Z,57.13
2024-02-05T19:46:04.521Z,57.30
2024-02-05T19:49:21.910Z,57.29
2024-02-05T19:52:51.725Z,57.08
2024-02-05T19:56:05.630Z,56.57
2024-02-05T20:00:05.861Z,56.55
2024-02-05T20:10:33.680Z,56.22
2024-02-05T20:24:51.887Z,56.31
2024-02-05T20:35:26.863Z,55.89
2024-02-05T20:38:30.105Z,56.02
2024-02-05T20:41:33.081Z,55.85
2024-02-05T20:44:35.923Z,55.92
2024-02-05T20:47:38.950Z,55.68
2024-02-05T20:50:43.166Z,56.02
2024-02-05T20:53:45.524Z,55.85
2024-02-05T20:56:48.432Z,56.43
2024-02-05T20:59:50.774Z,56.65
2024-02-05T21:02:53.949Z,56.54
2024-02-05T21:05:56.701Z,56.98
2024-02-05T21:08:59.370Z,56.77
2024-02-05T21:12:02.785Z,56.87
2024-02-05T21:15:07.359Z,57.24
2024-02-05T21:18:10.633Z,57.65
2024-02-05T21:21:13.367Z,57.20
2024-02-05T21:24:16.011Z,57.34
2024-02-05T21:27:18.642Z,57.13
2024-02-05T21:30:21.278Z,57.06
2024-02-05T21:33:23.851Z,57.85
2024-02-05T21:36:27.366Z,57.62
2024-02-05T21:39:30.612Z,57.04
2024-02-05T21:42:35.454Z,57.35
2024-02-05T21:45:39.580Z,57.47
2024-02-05T21:48:42.750Z,57.09
2024-02-05T21:51:45.371Z,57.13
2024-02-05T21:54:50.117Z,56.83
2024-02-05T21:57:52.419Z,56.94
2024-02-05T22:00:55.045Z,56.52
2024-02-05T22:03:57.974Z,56.30
2024-02-05T22:07:00.697Z,56.55
2024-02-05T22:10:03.087Z,56.09
2024-02-05T22:13:06.155Z,57.17
2024-02-05T22:16:08.742Z,56.84
2024-02-05T22:19:11.449Z,57.06
2024-02-05T22:22:14.614Z,57.19
2024-02-05T22:25:17.915Z,57.94
2024-02-05T22:28:20.258Z,57.70
2024-02-05T22:31:23.030Z,57.05
2024-02-05T22:34:31.751Z,57.52
2024-02-05T22:37:38.291Z,57.66
2024-02-05T22:40:40.636Z,57.42
2024-02-05T22:43:44.627Z,57.43
2024-02-05T22:46:47.011Z,57.03
2024-02-05T22:49:50.078Z,57.68
2024-02-05T22:52:52.540Z,57.08
2024-02-05T22:55:55.082Z,57.57
2024-02-05T22:58:57.114Z,57.69
2024-02-05T23:01:59.971Z,57.68
2024-02-05T23:05:03.068Z,57.59
2024-02-05T23:08:07.525Z,58.02
2024-02-05T23:11:10.447Z,58.11
2024-02-05T23:14:13.216Z,57.73
2024-02-05T23:17:15.690Z,57.43
2024-02-05T23:20:18.570Z,57.62
2024-02-05T23:23:21.628Z,57.58
2024-02-05T23:26:24.888Z,57.90
2024-02-05T23:29:27.464Z,57.88
2024-02-05T23:32:30.632Z,58.10
2024-02-05T23:35:33.205Z,57.68
2024-02-05T23:38:36.078Z,57.16
2024-02-05T23:41:38.665Z,57.95
2024-02-05T23:44:41.591Z,58.05
2024-02-05T23:47:44.154Z,58.35
2024-02-05T23:50:46.764Z,57.80
2024-02-05T23:53:49.373Z,58.18
2024-02-05T23:56:54.023Z,58.10
2024-02-05T23:59:56.724Z,57.94
